createdAt,value
2018-06-30T00:00:45.139Z,97354.38
2018-06-30T00:03:14.096Z,97351.09
2018-06-30T00:05:43.101Z,97348.63
2018-06-30T00:08:12.048Z,97350.03
2018-06-30T00:10:41.093Z,97347.59
2018-06-30T00:13:10.204Z,97347.06
2018-06-30T00:15:39.124Z,97345.39
2018-06-30T00:18:08.164Z,97348.66
2018-06-30T00:20:37.235Z,97343.72
2018-06-30T00:23:06.400Z,97343.97
2018-06-30T00:25:35.402Z,97342.31
2018-06-30T00:28:04.414Z,97341.98
2018-06-30T00:30:33.345Z,97343.83
2018-06-30T00:33:02.269Z,97341.05
2018-06-30T00:35:31.231Z,97339.92
2018-06-30T00:38:00.147Z,97332.78
2018-06-30T00:40:29.039Z,97327.02
2018-06-30T00:42:58.085Z,97335.69
2018-06-30T00:45:27.172Z,97334.79
2018-06-30T00:47:56.108Z,97340.95
2018-06-30T00:50:25.039Z,97346.32
2018-06-30T00:52:54.056Z,97348.74
2018-06-30T00:55:23.772Z,97343.82
2018-06-30T00:57:54.230Z,97342.45
2018-06-30T01:00:23.151Z,97345.72
2018-06-30T01:02:52.076Z,97347.38
2018-06-30T01:05:21.058Z,97338.39
2018-06-30T01:07:50.053Z,97338.91
2018-06-30T01:10:19.796Z,97336.18
2018-06-30T01:12:51.052Z,97336.99
2018-06-30T01:15:20.040Z,97333.67
2018-06-30T01:17:48.947Z,97329.32
2018-06-30T01:20:18.495Z,97318.40
2018-06-30T01:22:47.406Z,97307.72
2018-06-30T01:25:16.325Z,97302.26
2018-06-30T01:27:45.251Z,97301.19
2018-06-30T01:30:14.566Z,97305.81
2018-06-30T01:32:43.485Z,97303.31
2018-06-30T01:35:13.123Z,97310.89
2018-06-30T01:37:42.691Z,97315.22
2018-06-30T01:40:11.623Z,97317.07
2018-06-30T01:42:40.689Z,97316.19
2018-06-30T01:45:09.654Z,97317.54
2018-06-30T01:47:39.201Z,97316.42
2018-06-30T01:50:08.345Z,97313.89
2018-06-30T01:52:37.386Z,97311.93
2018-06-30T01:55:06.387Z,97309.98
2018-06-30T01:57:35.326Z,97316.80
2018-06-30T02:00:05.804Z,97317.63
2018-06-30T02:02:34.778Z,97317.92
2018-06-30T02:05:03.854Z,97322.03
2018-06-30T02:07:33.512Z,97307.91
2018-06-30T02:10:03.075Z,97310.34
2018-06-30T02:12:32.460Z,97315.50
2018-06-30T02:15:02.552Z,97305.95
2018-06-30T02:17:32.606Z,97300.25
2018-06-30T02:20:01.551Z,97310.05
2018-06-30T02:22:30.465Z,97315.66
2018-06-30T02:24:59.515Z,97313.38
2018-06-30T02:27:28.467Z,97316.82
2018-06-30T02:29:57.385Z,97315.89
2018-06-30T02:32:26.455Z,97307.61
2018-06-30T02:34:55.439Z,97302.08
2018-06-30T02:37:24.427Z,97299.55
2018-06-30T02:39:54.090Z,97306.31
2018-06-30T02:42:23.572Z,97313.88
2018-06-30T02:44:52.499Z,97312.27
2018-06-30T02:47:21.460Z,97300.62
2018-06-30T02:49:51.087Z,97300.64
2018-06-30T02:52:20.035Z,97298.20
2018-06-30T02:54:49.216Z,97296.02
2018-06-30T02:57:18.148Z,97303.37
2018-06-30T02:59:47.131Z,97312.67
2018-06-30T03:02:16.294Z,97311.84
2018-06-30T03:04:45.222Z,97307.23
2018-06-30T03:07:14.127Z,97312.23
2018-06-30T03:09:43.193Z,97317.19
2018-06-30T03:12:12.143Z,97314.53
2018-06-30T03:14:41.120Z,97320.06
2018-06-30T03:17:10.174Z,97322.31
2018-06-30T03:19:39.106Z,97326.19
2018-06-30T03:22:08.014Z,97326.24
2018-06-30T03:24:36.982Z,97329.89
2018-06-30T03:27:05.985Z,97325.03
2018-06-30T03:29:34.976Z,97328.63
2018-06-30T03:32:04.722Z,97330.16
2018-06-30T03:34:33.607Z,97332.16
2018-06-30T03:37:02.633Z,97329.48
2018-06-30T03:39:31.688Z,97330.34
2018-06-30T03:42:00.675Z,97324.16
2018-06-30T03:44:29.615Z,97332.97
2018-06-30T03:46:58.628Z,97328.66
2018-06-30T03:49:28.512Z,97325.14
2018-06-30T03:51:57.423Z,97328.96
2018-06-30T03:54:26.376Z,97333.59
2018-06-30T03:56:55.324Z,97326.52
2018-06-30T03:59:25.156Z,97323.80
2018-06-30T04:01:54.187Z,97330.14
2018-06-30T04:04:23.151Z,97336.21
2018-06-30T04:06:52.068Z,97345.25
2018-06-30T04:09:21.480Z,97338.17
2018-06-30T04:11:51.685Z,97327.83
2018-06-30T04:14:20.679Z,97327.31
2018-06-30T04:16:49.736Z,97325.13
2018-06-30T04:19:19.568Z,97323.86
2018-06-30T04:21:48.627Z,97331.29
2018-06-30T04:24:17.592Z,97337.09
2018-06-30T04:26:46.573Z,97341.77
2018-06-30T04:29:15.536Z,97330.06
2018-06-30T04:31:45.495Z,97322.69
2018-06-30T04:34:14.464Z,97322.73
2018-06-30T04:36:45.631Z,97327.97
2018-06-30T04:39:14.640Z,97334.86
2018-06-30T04:41:43.587Z,97342.32
2018-06-30T04:44:12.628Z,97340.70
2018-06-30T04:46:41.561Z,97336.93
2018-06-30T04:49:10.543Z,97335.77
2018-06-30T04:51:39.696Z,97344.13
2018-06-30T04:54:08.761Z,97344.61
2018-06-30T04:56:37.782Z,97347.39
2018-06-30T04:59:06.932Z,97349.11
2018-06-30T05:01:35.945Z,97346.38
2018-06-30T05:04:04.952Z,97337.92
2018-06-30T05:06:34.032Z,97343.69
2018-06-30T05:09:04.025Z,97346.72
2018-06-30T05:11:33.056Z,97353.84
2018-06-30T05:14:02.077Z,97354.42
2018-06-30T05:16:31.088Z,97345.39
2018-06-30T05:19:00.713Z,97344.56
2018-06-30T05:21:29.799Z,97339.70
2018-06-30T05:23:59.358Z,97341.08
2018-06-30T05:26:28.342Z,97347.63
2018-06-30T05:28:57.307Z,97348.21
2018-06-30T05:31:26.300Z,97343.06
2018-06-30T05:33:56.351Z,97343.89
2018-06-30T05:36:25.491Z,97350.48
2018-06-30T05:38:54.496Z,97360.42
2018-06-30T05:41:23.462Z,97360.12
2018-06-30T05:43:52.536Z,97356.34
2018-06-30T05:46:22.161Z,97353.09
2018-06-30T05:48:51.252Z,97347.65
2018-06-30T05:51:20.305Z,97349.05
2018-06-30T05:53:49.300Z,97360.83
2018-06-30T05:56:18.223Z,97360.25
2018-06-30T05:58:47.291Z,97362.97
2018-06-30T06:01:16.262Z,97370.06
2018-06-30T06:03:45.188Z,97368.41
2018-06-30T06:06:14.227Z,97368.70
2018-06-30T06:08:43.188Z,97370.35
2018-06-30T06:11:12.689Z,97372.58
2018-06-30T06:13:41.757Z,97368.75
2018-06-30T06:16:11.299Z,97364.36
2018-06-30T06:18:40.274Z,97360.02
2018-06-30T06:21:09.349Z,97359.23
2018-06-30T06:23:38.365Z,97359.55
2018-06-30T06:26:07.429Z,97358.49
2018-06-30T06:28:37.363Z,97362.33
2018-06-30T06:31:06.362Z,97361.27
2018-06-30T06:33:35.445Z,97357.44
2018-06-30T06:36:04.523Z,97356.86
2018-06-30T06:38:33.475Z,97338.19
2018-06-30T06:41:02.401Z,97340.67
2018-06-30T06:43:31.414Z,97339.08
2018-06-30T06:46:00.308Z,97336.62
2018-06-30T06:48:29.204Z,97342.11
2018-06-30T06:50:58.259Z,97335.54
2018-06-30T06:53:27.163Z,97336.05
2018-06-30T06:55:56.148Z,97335.80
2018-06-30T06:58:25.200Z,97333.59
2018-06-30T07:00:54.204Z,97337.08
2018-06-30T07:03:23.250Z,97327.47
2018-06-30T07:05:52.376Z,97332.14
2018-06-30T07:08:21.661Z,97333.48
2018-06-30T07:10:50.669Z,97334.02
2018-06-30T07:13:19.876Z,97336.09
2018-06-30T07:15:48.835Z,97331.05
2018-06-30T07:18:17.781Z,97319.67
2018-06-30T07:20:46.829Z,97332.98
2018-06-30T07:23:15.806Z,97328.93
2018-06-30T07:25:44.914Z,97332.33
2018-06-30T07:28:17.245Z,97328.59
2018-06-30T07:30:46.227Z,97332.58
2018-06-30T07:33:15.273Z,97324.42
2018-06-30T07:35:44.265Z,97328.88
2018-06-30T07:38:13.215Z,97324.68
2018-06-30T07:40:42.204Z,97328.28
2018-06-30T07:43:11.151Z,97328.11
2018-06-30T07:45:40.089Z,97321.59
2018-06-30T07:48:09.151Z,97325.73
2018-06-30T07:50:38.256Z,97318.20
2018-06-30T07:53:07.220Z,97315.92
2018-06-30T07:55:36.731Z,97321.92
2018-06-30T07:58:05.780Z,97315.79
2018-06-30T08:00:34.712Z,97315.06
2018-06-30T08:03:03.628Z,97318.09
2018-06-30T08:05:32.543Z,97319.05
2018-06-30T08:08:01.459Z,97320.27
2018-06-30T08:10:30.363Z,97316.25
2018-06-30T08:12:59.282Z,97318.80
2018-06-30T08:15:28.261Z,97321.02
2018-06-30T08:17:57.698Z,97323.91
2018-06-30T08:20:26.691Z,97325.75
2018-06-30T08:22:55.740Z,97317.47
2018-06-30T08:25:24.660Z,97319.91
2018-06-30T08:27:54.518Z,97318.06
2018-06-30T08:30:24.267Z,97326.81
2018-06-30T08:32:53.180Z,97338.00
2018-06-30T08:35:22.223Z,97336.35
2018-06-30T08:37:51.880Z,97334.84
2018-06-30T08:40:21.926Z,97333.87
2018-06-30T08:42:50.877Z,97343.44
2018-06-30T08:45:20.473Z,97338.33
2018-06-30T08:47:49.589Z,97340.86
2018-06-30T08:50:20.117Z,97336.45
2018-06-30T08:52:49.799Z,97352.16
2018-06-30T08:55:18.775Z,97354.13
2018-06-30T08:57:47.720Z,97342.61
2018-06-30T09:00:16.862Z,97352.25
2018-06-30T09:02:45.772Z,97354.54
2018-06-30T09:05:14.746Z,97356.55
2018-06-30T09:07:45.458Z,97358.21
2018-06-30T09:10:14.444Z,97358.26
2018-06-30T09:12:44.821Z,97359.35
2018-06-30T09:15:13.807Z,97355.50
2018-06-30T09:17:43.151Z,97350.86
2018-06-30T09:20:12.236Z,97359.39
2018-06-30T09:22:41.127Z,97356.25
2018-06-30T09:25:10.100Z,97351.32
2018-06-30T09:27:39.076Z,97352.66
2018-06-30T09:30:09.992Z,97358.98
2018-06-30T09:32:40.108Z,97360.97
2018-06-30T09:35:09.040Z,97361.67
2018-06-30T09:37:38.088Z,97367.56
2018-06-30T09:40:07.188Z,97360.92
2018-06-30T09:42:36.237Z,97365.88
2018-06-30T09:45:05.365Z,97367.84
2018-06-30T09:47:35.025Z,97366.47
2018-06-30T09:50:04.096Z,97369.80
2018-06-30T09:52:33.042Z,97370.91
2018-06-30T09:55:02.049Z,97376.34
2018-06-30T09:57:30.970Z,97369.90
2018-06-30T09:59:59.880Z,97376.16
2018-06-30T10:02:28.956Z,97371.39
2018-06-30T10:04:57.858Z,97372.48
2018-06-30T10:07:28.278Z,97379.33
2018-06-30T10:09:57.265Z,97377.88
2018-06-30T10:12:26.879Z,97380.86
2018-06-30T10:14:55.852Z,97381.68
2018-06-30T10:17:25.468Z,97385.73
2018-06-30T10:19:54.395Z,97387.43
2018-06-30T10:22:23.304Z,97384.67
2018-06-30T10:24:52.260Z,97377.74
2018-06-30T10:27:21.241Z,97376.67
2018-06-30T10:29:50.253Z,97376.83
2018-06-30T10:32:19.365Z,97371.81
2018-06-30T10:34:48.297Z,97375.44
2018-06-30T10:37:17.269Z,97371.58
2018-06-30T10:39:47.463Z,97369.19
2018-06-30T10:42:16.512Z,97372.28
2018-06-30T10:44:45.635Z,97348.67
2018-06-30T10:47:14.613Z,97373.42
2018-06-30T10:49:43.589Z,97380.38
2018-06-30T10:52:12.590Z,97368.58
2018-06-30T10:54:41.705Z,97368.88
2018-06-30T10:57:10.750Z,97371.27
2018-06-30T10:59:39.643Z,97365.13
2018-06-30T11:02:08.718Z,97368.50
2018-06-30T11:04:37.637Z,97363.48
2018-06-30T11:07:06.705Z,97363.91
2018-06-30T11:09:35.803Z,97359.28
2018-06-30T11:12:04.924Z,97356.36
2018-06-30T11:14:33.829Z,97350.34
2018-06-30T11:17:03.276Z,97356.66
2018-06-30T11:19:32.260Z,97353.37
2018-06-30T11:22:01.244Z,97361.19
2018-06-30T11:24:30.241Z,97358.86
2018-06-30T11:26:59.164Z,97366.23
2018-06-30T11:29:28.125Z,97367.27
2018-06-30T11:31:57.293Z,97366.55
2018-06-30T11:34:27.379Z,97353.98
2018-06-30T11:36:56.331Z,97354.22
2018-06-30T11:39:25.286Z,97358.14
2018-06-30T11:41:54.206Z,97358.75
2018-06-30T11:44:23.180Z,97357.73
2018-06-30T11:46:52.115Z,97365.00
2018-06-30T11:49:21.021Z,97364.80
2018-06-30T11:51:50.052Z,97368.83
2018-06-30T11:54:19.076Z,97365.58
2018-06-30T11:56:48.057Z,97354.42
2018-06-30T11:59:17.027Z,97344.50
2018-06-30T12:01:46.060Z,97342.59
2018-06-30T12:04:15.163Z,97343.84
2018-06-30T12:06:44.127Z,97337.42
2018-06-30T12:09:13.073Z,97336.22
2018-06-30T12:11:42.049Z,97333.36
2018-06-30T12:14:11.081Z,97333.44
2018-06-30T12:16:40.208Z,97330.11
2018-06-30T12:19:09.198Z,97329.17
2018-06-30T12:21:38.182Z,97322.35
2018-06-30T12:24:07.173Z,97330.42
2018-06-30T12:26:36.130Z,97329.39
2018-06-30T12:29:05.130Z,97331.17
2018-06-30T12:31:34.111Z,97327.00
2018-06-30T12:34:03.063Z,97328.67
2018-06-30T12:36:32.177Z,97334.34
2018-06-30T12:39:01.180Z,97338.50
2018-06-30T12:41:30.149Z,97335.05
2018-06-30T12:43:59.205Z,97335.95
2018-06-30T12:46:28.164Z,97331.05
2018-06-30T12:51:20.007Z,97331.86
2018-06-30T12:53:48.969Z,97327.95
2018-06-30T12:56:17.919Z,97330.42
2018-06-30T12:58:46.978Z,97338.02
2018-06-30T13:01:15.896Z,97342.88
2018-06-30T13:03:44.865Z,97339.33
2018-06-30T13:06:13.912Z,97339.42
2018-06-30T13:08:42.865Z,97328.08
2018-06-30T13:11:11.761Z,97325.92
2018-06-30T13:13:40.842Z,97337.28
2018-06-30T13:16:09.818Z,97327.94
2018-06-30T13:18:38.850Z,97323.35
2018-06-30T13:21:08.091Z,97330.08
2018-06-30T13:23:39.184Z,97337.16
2018-06-30T13:26:08.177Z,97326.45
2018-06-30T13:28:37.099Z,97338.39
2018-06-30T13:31:06.156Z,97337.30
2018-06-30T13:33:35.192Z,97324.69
2018-06-30T13:36:04.292Z,97331.67
2018-06-30T13:38:33.942Z,97326.64
2018-06-30T13:41:02.957Z,97328.90
2018-06-30T13:43:32.004Z,97327.98
2018-06-30T13:46:01.074Z,97323.95
2018-06-30T13:48:30.055Z,97323.91
2018-06-30T13:50:59.055Z,97335.13
2018-06-30T13:53:28.425Z,97327.59
2018-06-30T13:55:57.657Z,97330.97
2018-06-30T13:58:26.583Z,97342.65
2018-06-30T14:00:55.556Z,97351.66
2018-06-30T14:03:24.533Z,97341.09
2018-06-30T14:05:54.147Z,97356.34
2018-06-30T14:08:23.098Z,97352.02
2018-06-30T14:10:52.115Z,97357.52
2018-06-30T14:13:23.690Z,97362.11
2018-06-30T14:15:52.754Z,97375.84
2018-06-30T14:18:21.793Z,97385.50
2018-06-30T14:20:50.732Z,97391.09
2018-06-30T14:23:21.909Z,97396.84
2018-06-30T14:25:53.940Z,97396.44
2018-06-30T14:28:23.032Z,97397.58
2018-06-30T14:30:52.017Z,97410.66
2018-06-30T14:33:20.913Z,97406.83
2018-06-30T14:35:50.196Z,97400.27
2018-06-30T14:38:19.157Z,97391.81
2018-06-30T14:40:48.322Z,97383.25
2018-06-30T14:43:17.895Z,97374.00
2018-06-30T14:45:46.825Z,97377.93
2018-06-30T14:48:15.921Z,97375.98
2018-06-30T14:50:44.963Z,97376.09
2018-06-30T14:53:14.491Z,97379.56
2018-06-30T14:55:43.472Z,97377.98
2018-06-30T14:58:12.582Z,97382.26
2018-06-30T15:00:41.677Z,97378.37
2018-06-30T15:03:10.636Z,97379.77
2018-06-30T15:05:40.509Z,97373.81
2018-06-30T15:08:09.444Z,97374.97
2018-06-30T15:10:38.453Z,97375.77
2018-06-30T15:13:07.454Z,97377.67
2018-06-30T15:15:36.521Z,97392.94
2018-06-30T15:18:05.660Z,97396.04
2018-06-30T15:20:34.649Z,97411.77
2018-06-30T15:23:03.745Z,97425.34
2018-06-30T15:25:32.701Z,97428.00
2018-06-30T15:28:01.746Z,97441.61
2018-06-30T15:30:30.680Z,97463.61
2018-06-30T15:32:59.581Z,97488.03
2018-06-30T15:35:28.598Z,97497.03
2018-06-30T15:37:57.593Z,97504.12
2018-06-30T15:40:26.597Z,97508.66
2018-06-30T15:42:55.886Z,97507.63
2018-06-30T15:45:24.816Z,97501.38
2018-06-30T15:47:53.725Z,97499.02
2018-06-30T15:52:56.772Z,97506.63
2018-06-30T15:55:25.828Z,97500.73
2018-06-30T15:57:54.809Z,97514.83
2018-06-30T16:00:23.972Z,97530.58
2018-06-30T16:02:55.316Z,97528.44
2018-06-30T16:05:24.293Z,97538.91
2018-06-30T16:07:53.228Z,97529.86
2018-06-30T16:10:22.251Z,97523.81
2018-06-30T16:12:51.215Z,97516.95
2018-06-30T16:15:20.183Z,97498.55
2018-06-30T16:17:49.248Z,97494.16
2018-06-30T16:20:18.241Z,97501.05
2018-06-30T16:22:47.193Z,97499.41
2018-06-30T16:25:16.185Z,97495.55
2018-06-30T16:27:45.270Z,97519.98
2018-06-30T16:30:14.277Z,97526.28
2018-06-30T16:32:43.214Z,97528.75
2018-06-30T16:35:12.757Z,97535.37
2018-06-30T16:37:41.676Z,97538.38
2018-06-30T16:40:10.688Z,97538.39
2018-06-30T16:42:39.724Z,97540.30
2018-06-30T16:45:08.916Z,97547.45
2018-06-30T16:47:37.942Z,97547.17
2018-06-30T16:50:07.477Z,97554.02
2018-06-30T16:52:37.106Z,97550.45
2018-06-30T16:55:06.871Z,97544.39
2018-06-30T16:57:35.845Z,97554.52
2018-06-30T17:00:05.947Z,97559.95
2018-06-30T17:02:35.753Z,97559.41
2018-06-30T17:05:04.825Z,97562.64
2018-06-30T17:07:33.795Z,97558.48
2018-06-30T17:10:02.844Z,97563.10
2018-06-30T17:12:32.421Z,97567.79
2018-06-30T17:15:01.397Z,97558.70
2018-06-30T17:17:30.434Z,97554.87
2018-06-30T17:19:59.412Z,97544.22
2018-06-30T17:22:28.649Z,97560.39
2018-06-30T17:24:57.615Z,97568.39
2018-06-30T17:27:26.539Z,97568.16
2018-06-30T17:29:55.445Z,97568.17
2018-06-30T17:32:24.440Z,97555.30
2018-06-30T17:34:54.094Z,97558.89
2018-06-30T17:37:23.047Z,97549.28
2018-06-30T17:39:52.864Z,97546.79
2018-06-30T17:42:21.899Z,97558.84
2018-06-30T17:44:50.901Z,97557.64
2018-06-30T17:47:20.233Z,97547.48
2018-06-30T17:49:49.167Z,97548.53
2018-06-30T17:52:18.114Z,97551.59
2018-06-30T17:54:47.151Z,97548.56
2018-06-30T17:57:16.071Z,97553.51
2018-06-30T17:59:45.030Z,97562.56
2018-06-30T18:02:14.240Z,97562.05
2018-06-30T18:04:43.257Z,97555.99
2018-06-30T18:07:12.285Z,97570.02
2018-06-30T18:09:41.278Z,97580.45
2018-06-30T18:12:10.197Z,97589.53
2018-06-30T18:14:39.180Z,97598.30
2018-06-30T18:17:08.292Z,97596.39
2018-06-30T18:19:37.238Z,97615.05
2018-06-30T18:22:06.199Z,97610.95
2018-06-30T18:24:35.196Z,97618.91
2018-06-30T18:27:04.165Z,97621.93
2018-06-30T18:29:33.140Z,97633.77
2018-06-30T18:32:02.232Z,97636.79
2018-06-30T18:34:31.161Z,97644.50
2018-06-30T18:37:00.624Z,97650.05
2018-06-30T18:39:29.727Z,97658.35
2018-06-30T18:41:58.824Z,97658.34
2018-06-30T18:44:27.715Z,97661.95
2018-06-30T18:46:56.697Z,97664.17
2018-06-30T18:49:25.773Z,97673.81
2018-06-30T18:51:54.705Z,97680.44
2018-06-30T18:54:23.856Z,97695.53
2018-06-30T18:56:52.881Z,97704.07
2018-06-30T18:59:21.810Z,97704.05
2018-06-30T19:01:50.907Z,97703.30
2018-06-30T19:04:19.814Z,97706.87
2018-06-30T19:06:49.195Z,97702.47
2018-06-30T19:09:18.257Z,97706.84
2018-06-30T19:11:47.249Z,97707.13
2018-06-30T19:14:16.166Z,97709.08
2018-06-30T19:16:45.131Z,97711.80
2018-06-30T19:19:14.075Z,97709.05
2018-06-30T19:21:42.987Z,97708.77
2018-06-30T19:24:11.931Z,97707.95
2018-06-30T19:26:40.948Z,97710.97
2018-06-30T19:29:09.948Z,97716.48
2018-06-30T19:31:39.959Z,97723.61
2018-06-30T19:34:08.948Z,97724.73
2018-06-30T19:36:37.882Z,97728.02
2018-06-30T19:39:09.106Z,97734.36
2018-06-30T19:41:38.064Z,97736.27
2018-06-30T19:44:07.112Z,97741.22
2018-06-30T19:46:36.287Z,97748.92
2018-06-30T19:49:05.276Z,97756.05
2018-06-30T19:51:34.421Z,97758.80
2018-06-30T19:54:03.393Z,97767.05
2018-06-30T19:56:32.400Z,97771.72
2018-06-30T19:59:01.438Z,97776.10
2018-06-30T20:01:30.471Z,97792.83
2018-06-30T20:03:59.407Z,97789.26
2018-06-30T20:06:28.421Z,97785.69
2018-06-30T20:08:57.459Z,97799.66
2018-06-30T20:11:26.394Z,97801.27
2018-06-30T20:13:55.338Z,97802.88
2018-06-30T20:16:24.376Z,97806.39
2018-06-30T20:18:53.345Z,97806.61
2018-06-30T20:21:22.335Z,97799.17
2018-06-30T20:23:51.392Z,97803.28
2018-06-30T20:26:20.340Z,97804.91
2018-06-30T20:28:49.317Z,97802.09
2018-06-30T20:31:18.287Z,97799.06
2018-06-30T20:33:47.301Z,97804.84
2018-06-30T20:36:16.162Z,97803.68
2018-06-30T20:38:45.192Z,97810.75
2018-06-30T20:41:14.168Z,97817.02
2018-06-30T20:43:43.079Z,97819.45
2018-06-30T20:46:12.111Z,97811.48
2018-06-30T20:48:41.794Z,97805.20
2018-06-30T20:51:10.732Z,97809.36
2018-06-30T20:53:39.947Z,97807.22
2018-06-30T20:56:08.954Z,97813.33
2018-06-30T20:58:37.862Z,97807.05
2018-06-30T21:01:06.942Z,97804.91
2018-06-30T21:03:36.637Z,97816.44
2018-06-30T21:06:07.756Z,97816.19
2018-06-30T21:08:36.763Z,97807.41
2018-06-30T21:11:05.784Z,97815.35
2018-06-30T21:13:34.901Z,97823.63
2018-06-30T21:16:03.913Z,97829.09
2018-06-30T21:18:33.043Z,97824.03
2018-06-30T21:21:03.069Z,97825.29
2018-06-30T21:23:31.990Z,97834.22
2018-06-30T21:26:00.980Z,97837.13
2018-06-30T21:28:29.954Z,97838.66
2018-06-30T21:30:58.955Z,97836.97
2018-06-30T21:33:27.919Z,97842.43
2018-06-30T21:35:57.881Z,97847.03
2018-06-30T21:38:27.526Z,97855.98
2018-06-30T21:40:56.428Z,97865.27
2018-06-30T21:43:25.477Z,97868.47
2018-06-30T21:45:54.399Z,97863.41
2018-06-30T21:48:23.421Z,97859.63
2018-06-30T21:50:52.395Z,97862.52
2018-06-30T21:53:21.327Z,97853.57
2018-06-30T21:55:50.431Z,97850.48
2018-06-30T21:58:19.429Z,97844.91
2018-06-30T22:00:53.371Z,97857.97
2018-06-30T22:03:24.821Z,97849.66
2018-06-30T22:05:54.962Z,97853.41
2018-06-30T22:08:24.006Z,97855.25
2018-06-30T22:10:53.318Z,97851.06
2018-06-30T22:13:22.282Z,97847.26
2018-06-30T22:15:51.438Z,97846.98
2018-06-30T22:18:21.297Z,97848.71
2018-06-30T22:20:50.362Z,97848.66
2018-06-30T22:23:19.320Z,97847.34
2018-06-30T22:25:49.347Z,97850.08
2018-06-30T22:28:18.324Z,97854.45
2018-06-30T22:30:47.329Z,97842.73
2018-06-30T22:33:16.396Z,97851.34
2018-06-30T22:35:45.360Z,97856.61
2018-06-30T22:38:14.407Z,97862.13
2018-06-30T22:40:43.427Z,97871.77
2018-06-30T22:43:12.383Z,97866.83
2018-06-30T22:45:41.471Z,97872.00
2018-06-30T22:48:10.584Z,97871.77
2018-06-30T22:50:39.556Z,97874.23
2018-06-30T22:53:08.622Z,97874.23
2018-06-30T22:55:37.707Z,97872.08
2018-06-30T22:58:08.689Z,97860.33
2018-06-30T23:00:38.424Z,97863.45
2018-06-30T23:03:11.816Z,97859.87
2018-06-30T23:05:41.789Z,97861.48
2018-06-30T23:08:10.816Z,97859.56
2018-06-30T23:10:39.744Z,97860.55
2018-06-30T23:13:08.844Z,97849.05
2018-06-30T23:15:39.961Z,97848.85
2018-06-30T23:18:08.955Z,97855.12
2018-06-30T23:20:37.895Z,97861.31
2018-06-30T23:23:08.865Z,97866.08
2018-06-30T23:25:38.546Z,97864.56
2018-06-30T23:28:08.064Z,97865.56
2018-06-30T23:30:37.141Z,97870.84
2018-06-30T23:33:06.323Z,97874.38
2018-06-30T23:38:09.450Z,97880.99
2018-06-30T23:40:38.451Z,97881.99
2018-06-30T23:43:08.095Z,97887.02
2018-06-30T23:45:37.171Z,97885.74
2018-06-30T23:48:06.716Z,97893.02
2018-06-30T23:50:35.629Z,97899.74
2018-06-30T23:53:04.596Z,97900.38
2018-06-30T23:55:33.571Z,97891.97
2018-06-30T23:58:02.552Z,97899.55
